Terminal Aerodrome Forecast
Issued by NWS Wilmington, NC

Home | Current Version | Previous Version | Text Only | Print | Product List | Glossary On
Versions: 1 2 3 4 5 6 7 8 9 10 11 12
835
FTUS42 KILM 270520
TAFILM
TAF
KILM 270520Z 2706/2806 22006KT P6SM SKC
     FM271400 24010G17KT P6SM FEW050 SCT250
     FM280000 22006KT P6SM SKC=

USA.gov is the U.S. government's official web portal to all federal, state and local government web resources and services.